sensor_id;sensor_type;location;lat;lon;timestamp;P1;durP1;ratioP1;P2;durP2;ratioP2
1603;SDS011;795;49.296;11.348;2023-02-15T00:00:04;38.97;;;13.82;;
1603;SDS011;795;49.296;11.348;2023-02-15T00:02:37;26.55;;;13.32;;
1603;SDS011;795;49.296;11.348;2023-02-15T00:05:04;30.85;;;13.15;;
1603;SDS011;795;49.296;11.348;2023-02-15T00:07:33;32.47;;;15.88;;
1603;SDS011;795;49.296;11.348;2023-02-15T00:10:00;36.75;;;16.05;;
1603;SDS011;795;49.296;11.348;2023-02-15T00:12:27;26.52;;;15.02;;
1603;SDS011;795;49.296;11.348;2023-02-15T00:14:54;29.73;;;14.60;;
1603;SDS011;795;49.296;11.348;2023-02-15T00:17:21;36.80;;;14.65;;
1603;SDS011;795;49.296;11.348;2023-02-15T00:19:48;43.22;;;15.95;;
1603;SDS011;795;49.296;11.348;2023-02-15T00:22:15;64.03;;;18.45;;
1603;SDS011;795;49.296;11.348;2023-02-15T00:24:42;49.58;;;16.20;;
1603;SDS011;795;49.296;11.348;2023-02-15T00:27:09;29.40;;;15.68;;
1603;SDS011;795;49.296;11.348;2023-02-15T00:29:36;34.85;;;15.15;;
1603;SDS011;795;49.296;11.348;2023-02-15T00:32:03;33.20;;;14.48;;
1603;SDS011;795;49.296;11.348;2023-02-15T00:34:30;26.48;;;14.02;;
1603;SDS011;795;49.296;11.348;2023-02-15T00:36:57;35.90;;;13.30;;
1603;SDS011;795;49.296;11.348;2023-02-15T00:39:24;29.80;;;14.10;;
1603;SDS011;795;49.296;11.348;2023-02-15T00:41:51;34.00;;;15.60;;
1603;SDS011;795;49.296;11.348;2023-02-15T00:44:18;44.25;;;14.68;;
1603;SDS011;795;49.296;11.348;2023-02-15T00:46:45;34.63;;;14.43;;
1603;SDS011;795;49.296;11.348;2023-02-15T00:49:12;27.55;;;14.40;;
1603;SDS011;795;49.296;11.348;2023-02-15T00:51:39;28.40;;;13.93;;
1603;SDS011;795;49.296;11.348;2023-02-15T00:54:06;29.60;;;14.90;;
1603;SDS011;795;49.296;11.348;2023-02-15T00:56:33;30.52;;;14.32;;
1603;SDS011;795;49.296;11.348;2023-02-15T00:59:00;27.10;;;15.77;;
1603;SDS011;795;49.296;11.348;2023-02-15T01:01:28;21.95;;;10.82;;
1603;SDS011;795;49.296;11.348;2023-02-15T01:03:55;24.83;;;12.13;;
1603;SDS011;795;49.296;11.348;2023-02-15T01:06:22;26.35;;;12.70;;
1603;SDS011;795;49.296;11.348;2023-02-15T01:08:49;31.65;;;13.27;;
1603;SDS011;795;49.296;11.348;2023-02-15T01:11:17;24.95;;;12.20;;
1603;SDS011;795;49.296;11.348;2023-02-15T01:13:49;35.15;;;12.07;;
1603;SDS011;795;49.296;11.348;2023-02-15T01:16:20;30.88;;;13.38;;
1603;SDS011;795;49.296;11.348;2023-02-15T01:18:51;27.00;;;13.25;;
1603;SDS011;795;49.296;11.348;2023-02-15T01:21:19;29.85;;;14.73;;
1603;SDS011;795;49.296;11.348;2023-02-15T01:23:49;25.65;;;13.20;;
1603;SDS011;795;49.296;11.348;2023-02-15T01:26:17;26.95;;;13.90;;
1603;SDS011;795;49.296;11.348;2023-02-15T01:28:44;41.55;;;13.85;;
1603;SDS011;795;49.296;11.348;2023-02-15T01:31:13;35.35;;;12.90;;
1603;SDS011;795;49.296;11.348;2023-02-15T01:33:44;31.98;;;15.18;;
1603;SDS011;795;49.296;11.348;2023-02-15T01:36:13;28.33;;;12.88;;
1603;SDS011;795;49.296;11.348;2023-02-15T01:38:43;20.75;;;12.15;;
1603;SDS011;795;49.296;11.348;2023-02-15T01:41:11;31.75;;;11.40;;
1603;SDS011;795;49.296;11.348;2023-02-15T01:43:51;27.10;;;9.80;;
1603;SDS011;795;49.296;11.348;2023-02-15T01:46:30;52.40;;;10.32;;
1603;SDS011;795;49.296;11.348;2023-02-15T01:49:19;36.42;;;11.35;;
1603;SDS011;795;49.296;11.348;2023-02-15T01:51:52;25.80;;;11.57;;
1603;SDS011;795;49.296;11.348;2023-02-15T01:54:21;15.80;;;8.38;;
1603;SDS011;795;49.296;11.348;2023-02-15T01:57:00;16.33;;;8.20;;
1603;SDS011;795;49.296;11.348;2023-02-15T01:59:37;20.70;;;8.30;;
1603;SDS011;795;49.296;11.348;2023-02-15T02:02:09;28.50;;;8.60;;
1603;SDS011;795;49.296;11.348;2023-02-15T02:04:45;24.75;;;8.80;;
1603;SDS011;795;49.296;11.348;2023-02-15T02:07:18;19.23;;;9.23;;
1603;SDS011;795;49.296;11.348;2023-02-15T02:09:50;21.05;;;7.82;;
1603;SDS011;795;49.296;11.348;2023-02-15T02:12:17;17.65;;;10.73;;
1603;SDS011;795;49.296;11.348;2023-02-15T02:14:48;20.08;;;7.85;;
1603;SDS011;795;49.296;11.348;2023-02-15T02:17:26;13.13;;;7.40;;
1603;SDS011;795;49.296;11.348;2023-02-15T02:23:34;18.52;;;8.40;;
1603;SDS011;795;49.296;11.348;2023-02-15T02:26:50;12.88;;;8.25;;
1603;SDS011;795;49.296;11.348;2023-02-15T02:30:19;20.25;;;9.63;;
1603;SDS011;795;49.296;11.348;2023-02-15T02:40:03;18.10;;;10.52;;
1603;SDS011;795;49.296;11.348;2023-02-15T02:43:35;22.10;;;9.30;;
1603;SDS011;795;49.296;11.348;2023-02-15T02:46:39;24.15;;;8.43;;
1603;SDS011;795;49.296;11.348;2023-02-15T02:49:38;21.25;;;10.50;;
1603;SDS011;795;49.296;11.348;2023-02-15T02:55:13;35.45;;;11.25;;
1603;SDS011;795;49.296;11.348;2023-02-15T02:58:14;29.08;;;10.65;;
1603;SDS011;795;49.296;11.348;2023-02-15T03:00:56;27.58;;;9.23;;
1603;SDS011;795;49.296;11.348;2023-02-15T03:03:43;23.00;;;12.50;;
1603;SDS011;795;49.296;11.348;2023-02-15T03:06:20;25.67;;;11.05;;
1603;SDS011;795;49.296;11.348;2023-02-15T03:09:10;31.77;;;10.27;;
1603;SDS011;795;49.296;11.348;2023-02-15T03:11:47;20.20;;;9.40;;
1603;SDS011;795;49.296;11.348;2023-02-15T03:14:15;25.83;;;9.73;;
1603;SDS011;795;49.296;11.348;2023-02-15T03:16:46;46.13;;;8.88;;
1603;SDS011;795;49.296;11.348;2023-02-15T03:19:51;19.70;;;9.50;;
1603;SDS011;795;49.296;11.348;2023-02-15T03:22:21;47.97;;;10.52;;
1603;SDS011;795;49.296;11.348;2023-02-15T03:25:19;23.10;;;9.45;;
1603;SDS011;795;49.296;11.348;2023-02-15T03:27:59;19.85;;;9.63;;
1603;SDS011;795;49.296;11.348;2023-02-15T03:30:45;20.65;;;8.70;;
1603;SDS011;795;49.296;11.348;2023-02-15T03:33:21;35.97;;;10.48;;
1603;SDS011;795;49.296;11.348;2023-02-15T03:42:16;55.55;;;10.77;;
1603;SDS011;795;49.296;11.348;2023-02-15T03:44:54;21.02;;;9.25;;
1603;SDS011;795;49.296;11.348;2023-02-15T03:47:40;21.90;;;10.73;;
1603;SDS011;795;49.296;11.348;2023-02-15T03:50:15;44.72;;;11.82;;
1603;SDS011;795;49.296;11.348;2023-02-15T03:53:12;23.98;;;9.70;;
1603;SDS011;795;49.296;11.348;2023-02-15T03:55:50;34.65;;;10.10;;
1603;SDS011;795;49.296;11.348;2023-02-15T03:58:21;21.42;;;9.48;;
1603;SDS011;795;49.296;11.348;2023-02-15T04:01:13;16.23;;;10.45;;
1603;SDS011;795;49.296;11.348;2023-02-15T04:04:28;36.33;;;10.85;;
1603;SDS011;795;49.296;11.348;2023-02-15T04:07:08;68.00;;;10.70;;
1603;SDS011;795;49.296;11.348;2023-02-15T04:09:36;22.10;;;10.05;;
1603;SDS011;795;49.296;11.348;2023-02-15T04:12:21;20.83;;;9.85;;
1603;SDS011;795;49.296;11.348;2023-02-15T04:14:49;39.30;;;10.70;;
1603;SDS011;795;49.296;11.348;2023-02-15T04:17:38;48.03;;;12.18;;
1603;SDS011;795;49.296;11.348;2023-02-15T04:20:05;56.50;;;11.90;;
1603;SDS011;795;49.296;11.348;2023-02-15T04:22:52;53.33;;;11.85;;
1603;SDS011;795;49.296;11.348;2023-02-15T04:25:38;45.42;;;11.93;;
1603;SDS011;795;49.296;11.348;2023-02-15T04:28:04;66.80;;;13.43;;
1603;SDS011;795;49.296;11.348;2023-02-15T04:30:33;53.30;;;10.85;;
1603;SDS011;795;49.296;11.348;2023-02-15T04:33:00;46.53;;;11.30;;
1603;SDS011;795;49.296;11.348;2023-02-15T04:35:27;47.53;;;13.52;;
1603;SDS011;795;49.296;11.348;2023-02-15T04:37:54;124.50;;;14.63;;
1603;SDS011;795;49.296;11.348;2023-02-15T04:40:21;58.70;;;11.48;;
1603;SDS011;795;49.296;11.348;2023-02-15T04:42:48;49.90;;;13.80;;
1603;SDS011;795;49.296;11.348;2023-02-15T04:45:15;82.00;;;12.35;;
1603;SDS011;795;49.296;11.348;2023-02-15T04:47:43;42.38;;;14.35;;
1603;SDS011;795;49.296;11.348;2023-02-15T04:50:11;82.68;;;12.55;;
1603;SDS011;795;49.296;11.348;2023-02-15T04:52:38;93.47;;;13.52;;
1603;SDS011;795;49.296;11.348;2023-02-15T04:55:05;69.85;;;13.05;;
1603;SDS011;795;49.296;11.348;2023-02-15T04:57:33;85.50;;;15.05;;
1603;SDS011;795;49.296;11.348;2023-02-15T05:00:00;41.22;;;13.55;;
1603;SDS011;795;49.296;11.348;2023-02-15T05:02:27;60.15;;;13.70;;
1603;SDS011;795;49.296;11.348;2023-02-15T05:04:54;46.95;;;13.35;;
1603;SDS011;795;49.296;11.348;2023-02-15T05:07:20;61.13;;;12.52;;
1603;SDS011;795;49.296;11.348;2023-02-15T05:09:47;53.35;;;12.95;;
1603;SDS011;795;49.296;11.348;2023-02-15T05:12:14;24.20;;;11.77;;
1603;SDS011;795;49.296;11.348;2023-02-15T05:14:41;37.88;;;12.60;;
1603;SDS011;795;49.296;11.348;2023-02-15T05:17:08;26.25;;;10.88;;
1603;SDS011;795;49.296;11.348;2023-02-15T05:19:35;23.60;;;11.30;;
1603;SDS011;795;49.296;11.348;2023-02-15T05:22:02;30.35;;;14.38;;
1603;SDS011;795;49.296;11.348;2023-02-15T05:24:29;49.05;;;12.80;;
1603;SDS011;795;49.296;11.348;2023-02-15T05:27:14;42.17;;;13.00;;
1603;SDS011;795;49.296;11.348;2023-02-15T05:30:02;32.67;;;12.05;;
1603;SDS011;795;49.296;11.348;2023-02-15T05:32:30;42.08;;;12.73;;
1603;SDS011;795;49.296;11.348;2023-02-15T05:34:57;24.20;;;12.00;;
1603;SDS011;795;49.296;11.348;2023-02-15T05:37:24;27.30;;;12.45;;
1603;SDS011;795;49.296;11.348;2023-02-15T05:39:50;26.75;;;13.98;;
1603;SDS011;795;49.296;11.348;2023-02-15T05:42:17;24.75;;;11.30;;
1603;SDS011;795;49.296;11.348;2023-02-15T05:44:44;23.23;;;11.38;;
1603;SDS011;795;49.296;11.348;2023-02-15T05:47:11;27.58;;;13.10;;
1603;SDS011;795;49.296;11.348;2023-02-15T05:49:38;26.63;;;11.10;;
1603;SDS011;795;49.296;11.348;2023-02-15T05:52:05;33.25;;;13.00;;
1603;SDS011;795;49.296;11.348;2023-02-15T05:54:32;26.35;;;12.13;;
1603;SDS011;795;49.296;11.348;2023-02-15T05:56:59;26.67;;;12.90;;
1603;SDS011;795;49.296;11.348;2023-02-15T05:59:26;19.60;;;11.30;;
1603;SDS011;795;49.296;11.348;2023-02-15T06:01:52;21.20;;;12.48;;
1603;SDS011;795;49.296;11.348;2023-02-15T06:04:20;31.88;;;13.10;;
1603;SDS011;795;49.296;11.348;2023-02-15T06:06:46;31.20;;;13.18;;
1603;SDS011;795;49.296;11.348;2023-02-15T06:09:14;33.75;;;11.70;;
1603;SDS011;795;49.296;11.348;2023-02-15T06:11:40;30.08;;;12.82;;
1603;SDS011;795;49.296;11.348;2023-02-15T06:14:07;23.27;;;10.07;;
1603;SDS011;795;49.296;11.348;2023-02-15T06:16:34;26.33;;;12.35;;
1603;SDS011;795;49.296;11.348;2023-02-15T06:19:02;18.15;;;11.13;;
1603;SDS011;795;49.296;11.348;2023-02-15T06:21:30;24.33;;;12.40;;
1603;SDS011;795;49.296;11.348;2023-02-15T06:23:57;31.45;;;13.50;;
1603;SDS011;795;49.296;11.348;2023-02-15T06:26:24;29.70;;;13.32;;
1603;SDS011;795;49.296;11.348;2023-02-15T06:28:51;24.17;;;12.55;;
1603;SDS011;795;49.296;11.348;2023-02-15T06:31:18;29.35;;;13.15;;
1603;SDS011;795;49.296;11.348;2023-02-15T06:33:46;27.10;;;12.93;;
1603;SDS011;795;49.296;11.348;2023-02-15T06:36:12;28.08;;;13.23;;
1603;SDS011;795;49.296;11.348;2023-02-15T06:38:39;26.85;;;11.57;;
1603;SDS011;795;49.296;11.348;2023-02-15T06:41:06;21.77;;;9.68;;
1603;SDS011;795;49.296;11.348;2023-02-15T06:43:33;25.70;;;11.00;;
1603;SDS011;795;49.296;11.348;2023-02-15T06:46:00;17.73;;;8.63;;
1603;SDS011;795;49.296;11.348;2023-02-15T06:48:28;20.92;;;9.93;;
1603;SDS011;795;49.296;11.348;2023-02-15T06:50:55;18.33;;;8.60;;
1603;SDS011;795;49.296;11.348;2023-02-15T06:53:22;26.17;;;9.70;;
1603;SDS011;795;49.296;11.348;2023-02-15T06:55:49;27.10;;;10.88;;
1603;SDS011;795;49.296;11.348;2023-02-15T06:58:15;42.38;;;8.65;;
1603;SDS011;795;49.296;11.348;2023-02-15T07:00:42;27.98;;;10.68;;
1603;SDS011;795;49.296;11.348;2023-02-15T07:03:09;14.10;;;8.43;;
1603;SDS011;795;49.296;11.348;2023-02-15T07:05:40;45.58;;;10.73;;
1603;SDS011;795;49.296;11.348;2023-02-15T07:08:07;38.30;;;10.35;;
1603;SDS011;795;49.296;11.348;2023-02-15T07:10:34;14.85;;;8.48;;
1603;SDS011;795;49.296;11.348;2023-02-15T07:13:01;34.60;;;9.93;;
1603;SDS011;795;49.296;11.348;2023-02-15T07:15:28;15.48;;;8.93;;
1603;SDS011;795;49.296;11.348;2023-02-15T07:17:56;14.13;;;8.48;;
1603;SDS011;795;49.296;11.348;2023-02-15T07:20:25;21.17;;;9.23;;
1603;SDS011;795;49.296;11.348;2023-02-15T07:22:52;14.82;;;8.85;;
1603;SDS011;795;49.296;11.348;2023-02-15T07:25:19;13.77;;;8.50;;
1603;SDS011;795;49.296;11.348;2023-02-15T07:27:46;15.18;;;8.50;;
1603;SDS011;795;49.296;11.348;2023-02-15T07:30:14;16.80;;;9.65;;
1603;SDS011;795;49.296;11.348;2023-02-15T07:32:43;20.52;;;8.32;;
1603;SDS011;795;49.296;11.348;2023-02-15T07:35:31;17.98;;;8.70;;
1603;SDS011;795;49.296;11.348;2023-02-15T07:37:59;13.07;;;7.07;;
1603;SDS011;795;49.296;11.348;2023-02-15T07:40:27;13.02;;;8.55;;
1603;SDS011;795;49.296;11.348;2023-02-15T07:42:57;12.50;;;7.75;;
1603;SDS011;795;49.296;11.348;2023-02-15T07:45:25;15.98;;;8.75;;
1603;SDS011;795;49.296;11.348;2023-02-15T07:47:52;17.67;;;9.13;;
1603;SDS011;795;49.296;11.348;2023-02-15T07:50:18;11.38;;;7.68;;
1603;SDS011;795;49.296;11.348;2023-02-15T07:52:45;16.38;;;7.78;;
1603;SDS011;795;49.296;11.348;2023-02-15T07:55:12;35.30;;;9.13;;
1603;SDS011;795;49.296;11.348;2023-02-15T07:57:43;17.33;;;8.48;;
1603;SDS011;795;49.296;11.348;2023-02-15T08:00:12;13.75;;;7.53;;
1603;SDS011;795;49.296;11.348;2023-02-15T08:02:49;17.15;;;7.22;;
1603;SDS011;795;49.296;11.348;2023-02-15T08:05:42;12.40;;;7.65;;
1603;SDS011;795;49.296;11.348;2023-02-15T08:08:11;19.77;;;7.13;;
1603;SDS011;795;49.296;11.348;2023-02-15T08:16:47;18.80;;;8.25;;
1603;SDS011;795;49.296;11.348;2023-02-15T08:19:19;14.20;;;8.23;;
1603;SDS011;795;49.296;11.348;2023-02-15T08:21:57;18.67;;;8.82;;
1603;SDS011;795;49.296;11.348;2023-02-15T08:24:32;12.88;;;6.95;;
1603;SDS011;795;49.296;11.348;2023-02-15T08:27:06;49.30;;;9.35;;
1603;SDS011;795;49.296;11.348;2023-02-15T08:29:37;42.70;;;8.10;;
1603;SDS011;795;49.296;11.348;2023-02-15T08:32:06;9.50;;;6.95;;
1603;SDS011;795;49.296;11.348;2023-02-15T08:34:37;44.03;;;10.80;;
1603;SDS011;795;49.296;11.348;2023-02-15T08:37:08;19.88;;;10.38;;
1603;SDS011;795;49.296;11.348;2023-02-15T08:39:35;16.42;;;8.02;;
1603;SDS011;795;49.296;11.348;2023-02-15T08:42:02;17.63;;;9.95;;
1603;SDS011;795;49.296;11.348;2023-02-15T08:44:30;29.98;;;10.10;;
1603;SDS011;795;49.296;11.348;2023-02-15T08:46:56;14.35;;;8.15;;
1603;SDS011;795;49.296;11.348;2023-02-15T08:49:28;31.00;;;7.45;;
1603;SDS011;795;49.296;11.348;2023-02-15T08:51:55;20.05;;;7.45;;
1603;SDS011;795;49.296;11.348;2023-02-15T08:54:22;34.45;;;8.52;;
1603;SDS011;795;49.296;11.348;2023-02-15T08:56:50;16.52;;;8.77;;
1603;SDS011;795;49.296;11.348;2023-02-15T08:59:18;20.08;;;6.88;;
1603;SDS011;795;49.296;11.348;2023-02-15T09:03:57;15.52;;;9.10;;
1603;SDS011;795;49.296;11.348;2023-02-15T09:06:34;19.25;;;9.27;;
1603;SDS011;795;49.296;11.348;2023-02-15T09:09:04;20.05;;;8.90;;
1603;SDS011;795;49.296;11.348;2023-02-15T09:11:34;25.45;;;10.18;;
1603;SDS011;795;49.296;11.348;2023-02-15T09:14:12;20.05;;;11.27;;
1603;SDS011;795;49.296;11.348;2023-02-15T09:16:46;36.45;;;9.38;;
1603;SDS011;795;49.296;11.348;2023-02-15T09:19:17;24.65;;;11.07;;
1603;SDS011;795;49.296;11.348;2023-02-15T09:21:48;20.98;;;8.38;;
1603;SDS011;795;49.296;11.348;2023-02-15T09:24:15;31.00;;;8.70;;
1603;SDS011;795;49.296;11.348;2023-02-15T09:26:46;18.58;;;9.38;;
1603;SDS011;795;49.296;11.348;2023-02-15T09:29:15;19.17;;;8.88;;
1603;SDS011;795;49.296;11.348;2023-02-15T09:31:46;20.23;;;9.50;;
1603;SDS011;795;49.296;11.348;2023-02-15T09:34:17;19.05;;;11.45;;
1603;SDS011;795;49.296;11.348;2023-02-15T09:36:48;19.25;;;9.02;;
1603;SDS011;795;49.296;11.348;2023-02-15T09:54:26;19.77;;;9.88;;
1603;SDS011;795;49.296;11.348;2023-02-15T10:00:51;20.77;;;8.75;;
1603;SDS011;795;49.296;11.348;2023-02-15T10:04:02;16.40;;;9.70;;
1603;SDS011;795;49.296;11.348;2023-02-15T10:09:51;21.40;;;11.23;;
1603;SDS011;795;49.296;11.348;2023-02-15T10:15:42;25.85;;;11.65;;
1603;SDS011;795;49.296;11.348;2023-02-15T10:18:38;20.95;;;10.77;;
1603;SDS011;795;49.296;11.348;2023-02-15T10:21:58;18.42;;;10.77;;
1603;SDS011;795;49.296;11.348;2023-02-15T10:28:17;20.73;;;12.77;;
1603;SDS011;795;49.296;11.348;2023-02-15T10:40:39;21.83;;;12.13;;
1603;SDS011;795;49.296;11.348;2023-02-15T10:44:18;22.45;;;12.63;;
1603;SDS011;795;49.296;11.348;2023-02-15T10:47:14;21.98;;;11.07;;
1603;SDS011;795;49.296;11.348;2023-02-15T10:53:07;20.45;;;12.05;;
1603;SDS011;795;49.296;11.348;2023-02-15T10:59:23;18.75;;;11.68;;
1603;SDS011;795;49.296;11.348;2023-02-15T11:02:36;24.75;;;12.68;;
1603;SDS011;795;49.296;11.348;2023-02-15T11:08:34;24.10;;;12.55;;
1603;SDS011;795;49.296;11.348;2023-02-15T11:11:12;27.15;;;12.93;;
1603;SDS011;795;49.296;11.348;2023-02-15T11:13:52;20.55;;;12.05;;
1603;SDS011;795;49.296;11.348;2023-02-15T11:16:32;20.90;;;13.68;;
1603;SDS011;795;49.296;11.348;2023-02-15T11:19:15;21.38;;;13.45;;
1603;SDS011;795;49.296;11.348;2023-02-15T11:21:59;24.67;;;14.75;;
1603;SDS011;795;49.296;11.348;2023-02-15T11:24:39;28.40;;;15.95;;
1603;SDS011;795;49.296;11.348;2023-02-15T11:29:40;22.20;;;13.90;;
1603;SDS011;795;49.296;11.348;2023-02-15T11:32:39;29.67;;;14.30;;
1603;SDS011;795;49.296;11.348;2023-02-15T11:38:14;27.95;;;16.35;;
1603;SDS011;795;49.296;11.348;2023-02-15T11:41:09;41.08;;;19.50;;
1603;SDS011;795;49.296;11.348;2023-02-15T11:43:52;21.42;;;13.95;;
1603;SDS011;795;49.296;11.348;2023-02-15T11:46:44;20.48;;;12.25;;
1603;SDS011;795;49.296;11.348;2023-02-15T11:49:20;23.40;;;13.85;;
1603;SDS011;795;49.296;11.348;2023-02-15T11:51:59;29.58;;;15.80;;
1603;SDS011;795;49.296;11.348;2023-02-15T11:54:33;22.77;;;14.23;;
1603;SDS011;795;49.296;11.348;2023-02-15T12:00:10;21.23;;;14.18;;
1603;SDS011;795;49.296;11.348;2023-02-15T12:03:03;21.57;;;14.50;;
1603;SDS011;795;49.296;11.348;2023-02-15T12:05:53;22.00;;;13.57;;
1603;SDS011;795;49.296;11.348;2023-02-15T12:11:37;24.40;;;15.70;;
1603;SDS011;795;49.296;11.348;2023-02-15T12:14:08;24.27;;;14.77;;
1603;SDS011;795;49.296;11.348;2023-02-15T12:16:45;26.20;;;15.13;;
1603;SDS011;795;49.296;11.348;2023-02-15T12:19:27;25.13;;;15.70;;
1603;SDS011;795;49.296;11.348;2023-02-15T12:21:59;23.93;;;15.93;;
1603;SDS011;795;49.296;11.348;2023-02-15T12:24:37;29.33;;;16.57;;
1603;SDS011;795;49.296;11.348;2023-02-15T12:29:49;24.87;;;17.43;;
1603;SDS011;795;49.296;11.348;2023-02-15T12:32:26;28.53;;;17.07;;
1603;SDS011;795;49.296;11.348;2023-02-15T12:35:09;33.03;;;18.33;;
1603;SDS011;795;49.296;11.348;2023-02-15T12:40:37;36.40;;;19.10;;
1603;SDS011;795;49.296;11.348;2023-02-15T12:43:15;33.77;;;18.73;;
1603;SDS011;795;49.296;11.348;2023-02-15T12:46:13;33.57;;;19.77;;
1603;SDS011;795;49.296;11.348;2023-02-15T12:51:48;33.47;;;19.75;;
1603;SDS011;795;49.296;11.348;2023-02-15T12:57:18;41.43;;;20.27;;
1603;SDS011;795;49.296;11.348;2023-02-15T13:00:06;40.50;;;19.45;;
1603;SDS011;795;49.296;11.348;2023-02-15T13:02:55;37.38;;;20.25;;
1603;SDS011;795;49.296;11.348;2023-02-15T13:05:32;34.83;;;20.93;;
1603;SDS011;795;49.296;11.348;2023-02-15T13:08:19;43.88;;;22.58;;
1603;SDS011;795;49.296;11.348;2023-02-15T13:11:00;43.92;;;21.70;;
1603;SDS011;795;49.296;11.348;2023-02-15T13:13:45;43.60;;;21.92;;
1603;SDS011;795;49.296;11.348;2023-02-15T13:16:34;40.05;;;20.95;;
1603;SDS011;795;49.296;11.348;2023-02-15T13:19:10;40.38;;;21.60;;
1603;SDS011;795;49.296;11.348;2023-02-15T13:21:53;37.95;;;20.63;;
1603;SDS011;795;49.296;11.348;2023-02-15T13:24:24;38.30;;;22.42;;
1603;SDS011;795;49.296;11.348;2023-02-15T13:27:02;38.80;;;22.02;;
1603;SDS011;795;49.296;11.348;2023-02-15T13:29:42;36.80;;;19.65;;
1603;SDS011;795;49.296;11.348;2023-02-15T13:32:22;36.83;;;21.42;;
1603;SDS011;795;49.296;11.348;2023-02-15T13:35:10;42.90;;;21.92;;
1603;SDS011;795;49.296;11.348;2023-02-15T13:37:50;45.85;;;21.30;;
1603;SDS011;795;49.296;11.348;2023-02-15T13:40:52;42.35;;;22.63;;
1603;SDS011;795;49.296;11.348;2023-02-15T13:43:39;44.13;;;22.63;;
1603;SDS011;795;49.296;11.348;2023-02-15T13:52:26;49.47;;;21.13;;
1603;SDS011;795;49.296;11.348;2023-02-15T14:04:13;41.03;;;20.88;;
1603;SDS011;795;49.296;11.348;2023-02-15T14:07:15;41.33;;;21.07;;
1603;SDS011;795;49.296;11.348;2023-02-15T14:19:58;41.83;;;22.20;;
1603;SDS011;795;49.296;11.348;2023-02-15T14:22:50;36.13;;;21.57;;
1603;SDS011;795;49.296;11.348;2023-02-15T14:25:44;43.87;;;23.50;;
1603;SDS011;795;49.296;11.348;2023-02-15T14:31:25;39.40;;;21.93;;
1603;SDS011;795;49.296;11.348;2023-02-15T14:34:03;44.23;;;21.67;;
1603;SDS011;795;49.296;11.348;2023-02-15T14:36:30;37.97;;;22.13;;
1603;SDS011;795;49.296;11.348;2023-02-15T14:42:23;46.60;;;23.50;;
1603;SDS011;795;49.296;11.348;2023-02-15T14:48:12;44.15;;;22.92;;
1603;SDS011;795;49.296;11.348;2023-02-15T14:50:56;48.58;;;22.77;;
1603;SDS011;795;49.296;11.348;2023-02-15T14:58:37;47.37;;;23.77;;
1603;SDS011;795;49.296;11.348;2023-02-15T15:01:25;42.57;;;22.67;;
1603;SDS011;795;49.296;11.348;2023-02-15T15:04:03;45.13;;;23.47;;
1603;SDS011;795;49.296;11.348;2023-02-15T15:06:38;50.10;;;24.60;;
1603;SDS011;795;49.296;11.348;2023-02-15T15:11:49;43.47;;;23.47;;
1603;SDS011;795;49.296;11.348;2023-02-15T15:17:02;38.13;;;23.33;;
1603;SDS011;795;49.296;11.348;2023-02-15T15:22:19;40.83;;;21.90;;
1603;SDS011;795;49.296;11.348;2023-02-15T15:24:54;43.70;;;22.57;;
1603;SDS011;795;49.296;11.348;2023-02-15T15:28:05;38.67;;;21.73;;
1603;SDS011;795;49.296;11.348;2023-02-15T15:33:17;57.17;;;21.65;;
1603;SDS011;795;49.296;11.348;2023-02-15T15:48:40;45.13;;;22.08;;
1603;SDS011;795;49.296;11.348;2023-02-15T15:51:21;47.00;;;22.48;;
1603;SDS011;795;49.296;11.348;2023-02-15T15:53:59;48.30;;;22.42;;
1603;SDS011;795;49.296;11.348;2023-02-15T15:56:33;62.03;;;22.77;;
1603;SDS011;795;49.296;11.348;2023-02-15T15:59:06;46.45;;;23.75;;
1603;SDS011;795;49.296;11.348;2023-02-15T16:01:47;45.78;;;21.60;;
1603;SDS011;795;49.296;11.348;2023-02-15T16:04:26;53.38;;;23.75;;
1603;SDS011;795;49.296;11.348;2023-02-15T16:10:19;41.80;;;20.63;;
1603;SDS011;795;49.296;11.348;2023-02-15T16:12:53;54.72;;;24.90;;
1603;SDS011;795;49.296;11.348;2023-02-15T16:15:22;58.72;;;23.50;;
1603;SDS011;795;49.296;11.348;2023-02-15T16:18:19;42.53;;;21.45;;
1603;SDS011;795;49.296;11.348;2023-02-15T16:20:54;42.80;;;19.73;;
1603;SDS011;795;49.296;11.348;2023-02-15T16:26:41;61.08;;;25.00;;
1603;SDS011;795;49.296;11.348;2023-02-15T16:29:46;46.50;;;22.02;;
1603;SDS011;795;49.296;11.348;2023-02-15T16:32:20;38.95;;;21.95;;
1603;SDS011;795;49.296;11.348;2023-02-15T16:34:58;55.28;;;23.85;;
1603;SDS011;795;49.296;11.348;2023-02-15T16:37:32;41.00;;;20.27;;
1603;SDS011;795;49.296;11.348;2023-02-15T16:40:01;60.83;;;24.83;;
1603;SDS011;795;49.296;11.348;2023-02-15T16:42:29;55.72;;;23.55;;
1603;SDS011;795;49.296;11.348;2023-02-15T16:47:36;45.95;;;22.40;;
1603;SDS011;795;49.296;11.348;2023-02-15T16:50:18;48.67;;;23.13;;
1603;SDS011;795;49.296;11.348;2023-02-15T16:53:03;57.40;;;24.73;;
1603;SDS011;795;49.296;11.348;2023-02-15T16:55:47;49.78;;;25.73;;
1603;SDS011;795;49.296;11.348;2023-02-15T16:58:23;50.55;;;23.85;;
1603;SDS011;795;49.296;11.348;2023-02-15T17:01:07;61.42;;;26.45;;
1603;SDS011;795;49.296;11.348;2023-02-15T17:03:40;51.90;;;24.42;;
1603;SDS011;795;49.296;11.348;2023-02-15T17:06:22;51.95;;;24.70;;
1603;SDS011;795;49.296;11.348;2023-02-15T17:09:06;46.53;;;22.98;;
1603;SDS011;795;49.296;11.348;2023-02-15T17:11:48;47.05;;;24.83;;
1603;SDS011;795;49.296;11.348;2023-02-15T17:14:18;55.97;;;25.55;;
1603;SDS011;795;49.296;11.348;2023-02-15T17:17:06;52.45;;;26.45;;
1603;SDS011;795;49.296;11.348;2023-02-15T17:19:47;53.22;;;25.45;;
1603;SDS011;795;49.296;11.348;2023-02-15T17:22:21;54.15;;;24.92;;
1603;SDS011;795;49.296;11.348;2023-02-15T17:25:00;54.58;;;25.20;;
1603;SDS011;795;49.296;11.348;2023-02-15T17:27:30;61.13;;;26.70;;
1603;SDS011;795;49.296;11.348;2023-02-15T17:30:01;58.35;;;24.85;;
1603;SDS011;795;49.296;11.348;2023-02-15T17:32:53;53.70;;;23.95;;
1603;SDS011;795;49.296;11.348;2023-02-15T17:35:26;57.70;;;26.00;;
1603;SDS011;795;49.296;11.348;2023-02-15T17:38:03;64.20;;;25.92;;
1603;SDS011;795;49.296;11.348;2023-02-15T17:40:43;62.85;;;25.45;;
1603;SDS011;795;49.296;11.348;2023-02-15T17:43:10;59.65;;;27.30;;
1603;SDS011;795;49.296;11.348;2023-02-15T17:45:47;53.25;;;24.45;;
1603;SDS011;795;49.296;11.348;2023-02-15T17:48:21;53.63;;;26.30;;
1603;SDS011;795;49.296;11.348;2023-02-15T17:51:02;52.30;;;23.02;;
1603;SDS011;795;49.296;11.348;2023-02-15T17:53:37;66.63;;;27.13;;
1603;SDS011;795;49.296;11.348;2023-02-15T17:56:04;52.47;;;23.98;;
1603;SDS011;795;49.296;11.348;2023-02-15T17:58:38;48.45;;;25.65;;
1603;SDS011;795;49.296;11.348;2023-02-15T18:01:06;60.95;;;25.50;;
1603;SDS011;795;49.296;11.348;2023-02-15T18:04:02;83.90;;;25.58;;
1603;SDS011;795;49.296;11.348;2023-02-15T18:06:49;107.45;;;22.58;;
1603;SDS011;795;49.296;11.348;2023-02-15T18:09:34;73.75;;;21.95;;
1603;SDS011;795;49.296;11.348;2023-02-15T18:12:21;73.82;;;22.25;;
1603;SDS011;795;49.296;11.348;2023-02-15T18:14:53;135.85;;;22.02;;
1603;SDS011;795;49.296;11.348;2023-02-15T18:17:30;108.75;;;24.50;;
1603;SDS011;795;49.296;11.348;2023-02-15T18:20:03;120.15;;;23.15;;
1603;SDS011;795;49.296;11.348;2023-02-15T18:22:59;90.15;;;23.90;;
1603;SDS011;795;49.296;11.348;2023-02-15T18:25:27;101.97;;;23.42;;
1603;SDS011;795;49.296;11.348;2023-02-15T18:27:54;135.48;;;24.10;;
1603;SDS011;795;49.296;11.348;2023-02-15T18:30:22;60.80;;;21.38;;
1603;SDS011;795;49.296;11.348;2023-02-15T18:32:54;74.57;;;20.45;;